Pagrindinis puslapis
METAR-TAF:

METAR-TAF

Oro uostai :

Bodrum, Turkija

platuma: 37-14-53N, ilguma: 027-40-55E, Aukštis: 6 m

Dabartinis oras

Ataskaita buvo paskelbta 28 minutes, ne 20:50 UTC
Vėjas 4 kt iš Pietų/Pietryčių
Temperatūra 17°C
Drėgmė 63%
Slėgis 1012 hPa
Matomumas 10 km arba daugiau
nėra debesų žemiau 1500 m ir nėra kamuolinių lietaus debesų

METAR: LTFE 172050Z 16004KT CAVOK 17/10 Q1012 NOSIG RMK RWY10 VRB02KT

Laikas: 00:18 (21:18 UTC)

Prognozė

Ataskaita buvo paskelbta 4 valandos ir 38 minutes, ne 16:40 UTC
Prognozė galioja nuo 17 metu 18 UTC su 18 metu 18 UTC
Vėjas 2 kt nuo kintamojo kryptimis
Matomumas 10 km arba daugiau
nėra debesų žemiau 1500 m ir nėra kamuolinių lietaus debesų
Tapsmas
nuo 18 metu 07 UTC su 18 metu 09 UTC
Vėjas 12 kt iš Vakarų
Mažai debesys ne aukštis 3500 ft
Tapsmas
nuo 18 metu 15 UTC su 18 metu 18 UTC
Vėjas 2 kt nuo kintamojo kryptimis
Matomumas 10 km arba daugiau
nėra debesų žemiau 1500 m ir nėra kamuolinių lietaus debesų

TAF: LTFE 171640Z 1718/1818 VRB02KT CAVOK BECMG 1807/1809 26012KT FEW035 BECMG 1815/1818 VRB02KT CAVOK

Orai ataskaitas ir orų prognozės (METAR, TAF).

turimą stotys yra geltonos ir raudonos taškus žemėlapyje.

Perkelti pele per norėdami pamatyti stoties vardą.

Tada spustelėkite, norėdami matyti oro stebėjimo ir prognozės.

Norėdami pakeisti žemėlapį: spustelėkite ant žalios mygtukų su juodo kryžiaus žemyn,; žalią mygtuką su brūkšneliu, jei norite nutolinti; arba žalių rodyklių gretimoms žemėlapius.


METAR-TAF: